createdAt,value
2019-04-26T00:00:58.167Z,964.97
2019-04-26T00:01:58.186Z,964.90
2019-04-26T00:02:58.167Z,964.97
2019-04-26T00:03:58.233Z,964.93
2019-04-26T00:04:58.297Z,964.92
2019-04-26T00:05:58.306Z,964.80
2019-04-26T00:06:58.195Z,964.86
2019-04-26T00:07:58.309Z,964.92
2019-04-26T00:08:58.200Z,964.87
2019-04-26T00:09:58.193Z,964.98
2019-04-26T00:10:58.198Z,964.98
2019-04-26T00:11:58.118Z,965.02
2019-04-26T00:12:58.131Z,965.05
2019-04-26T00:13:58.134Z,964.94
2019-04-26T00:14:58.156Z,964.86
2019-04-26T00:15:58.178Z,964.78
2019-04-26T00:16:58.271Z,964.72
2019-04-26T00:17:58.232Z,964.64
2019-04-26T00:18:58.184Z,964.57
2019-04-26T00:19:58.237Z,964.60
2019-04-26T00:20:58.175Z,964.54
2019-04-26T00:21:58.192Z,964.59
2019-04-26T00:22:58.216Z,964.52
2019-04-26T00:23:58.355Z,964.53
2019-04-26T00:24:58.266Z,964.53
2019-04-26T00:25:58.366Z,964.53
2019-04-26T00:26:58.239Z,964.57
2019-04-26T00:27:58.368Z,964.71
2019-04-26T00:28:58.157Z,964.65
2019-04-26T00:29:58.287Z,964.68
2019-04-26T00:30:58.379Z,964.68
2019-04-26T00:31:58.281Z,964.65
2019-04-26T00:32:58.303Z,964.67
2019-04-26T00:33:58.424Z,964.65
2019-04-26T00:34:58.340Z,964.77
2019-04-26T00:35:58.395Z,964.76
2019-04-26T00:36:58.408Z,964.84
2019-04-26T00:37:58.412Z,964.84
2019-04-26T00:38:58.537Z,964.93
2019-04-26T00:39:58.441Z,964.81
2019-04-26T00:40:58.461Z,964.83
2019-04-26T00:41:58.358Z,964.87
2019-04-26T00:42:58.469Z,964.94
2019-04-26T00:43:58.504Z,964.98
2019-04-26T00:44:58.515Z,964.99
2019-04-26T00:45:58.476Z,965.01
2019-04-26T00:46:58.576Z,964.98
2019-04-26T00:47:58.527Z,965.01
2019-04-26T00:48:58.638Z,965.06
2019-04-26T00:49:58.637Z,965.17
2019-04-26T00:50:58.511Z,965.21
2019-04-26T00:51:58.525Z,965.21
2019-04-26T00:52:58.584Z,965.23
2019-04-26T00:53:58.560Z,965.23
2019-04-26T00:54:58.575Z,965.20
2019-04-26T00:55:58.550Z,965.23
2019-04-26T00:56:58.693Z,965.22
2019-04-26T00:57:58.745Z,965.15
2019-04-26T00:58:58.800Z,965.22
2019-04-26T00:59:58.670Z,965.17
2019-04-26T01:00:58.809Z,965.20
2019-04-26T01:01:58.727Z,965.20
2019-04-26T01:02:58.772Z,965.23
2019-04-26T01:03:58.758Z,965.37
2019-04-26T01:04:58.764Z,965.28
2019-04-26T01:06:00.189Z,965.13
2019-04-26T01:06:58.783Z,965.02
2019-04-26T01:07:58.839Z,965.14
2019-04-26T01:08:58.745Z,965.19
2019-04-26T01:09:58.788Z,965.14
2019-04-26T01:10:58.738Z,965.02
2019-04-26T01:11:59.012Z,965.01
2019-04-26T01:12:58.685Z,964.98
2019-04-26T01:13:58.796Z,965.01
2019-04-26T01:14:58.771Z,965.02
2019-04-26T01:15:58.829Z,964.95
2019-04-26T01:16:58.711Z,964.86
2019-04-26T01:17:58.785Z,964.84
2019-04-26T01:18:58.876Z,964.82
2019-04-26T01:19:58.730Z,964.78
2019-04-26T01:20:58.766Z,964.84
2019-04-26T01:21:58.744Z,964.84
2019-04-26T01:22:58.886Z,964.90
2019-04-26T01:23:58.781Z,964.84
2019-04-26T01:24:58.805Z,964.80
2019-04-26T01:25:58.803Z,964.82
2019-04-26T01:26:59.022Z,964.76
2019-04-26T01:27:58.901Z,964.83
2019-04-26T01:28:58.753Z,964.82
2019-04-26T01:29:58.724Z,964.85
2019-04-26T01:30:58.851Z,964.81
2019-04-26T01:31:58.728Z,964.83
2019-04-26T01:32:58.816Z,964.85
2019-04-26T01:33:58.840Z,964.83
2019-04-26T01:34:58.756Z,964.94
2019-04-26T01:35:58.777Z,964.98
2019-04-26T01:36:58.871Z,964.94
2019-04-26T01:37:58.740Z,964.86
2019-04-26T01:38:58.887Z,964.95
2019-04-26T01:39:58.837Z,965.03
2019-04-26T01:41:03.295Z,965.06
2019-04-26T01:41:58.669Z,965.07
2019-04-26T01:42:58.689Z,965.11
2019-04-26T01:43:58.846Z,965.06
2019-04-26T01:44:58.858Z,965.13
2019-04-26T01:45:58.779Z,965.03
2019-04-26T01:46:58.646Z,965.07
2019-04-26T01:47:58.746Z,965.05
2019-04-26T01:48:58.765Z,965.05
2019-04-26T01:49:58.708Z,965.13
2019-04-26T01:50:58.778Z,965.10
2019-04-26T01:51:58.799Z,965.27
2019-04-26T01:52:59.933Z,965.26
2019-04-26T01:53:58.784Z,965.23
2019-04-26T01:54:58.894Z,965.12
2019-04-26T01:55:58.856Z,965.13
2019-04-26T01:56:58.813Z,965.24
2019-04-26T01:57:58.849Z,965.16
2019-04-26T01:58:58.825Z,965.21
2019-04-26T01:59:58.815Z,965.23
2019-04-26T02:00:58.739Z,965.27
2019-04-26T02:01:58.833Z,965.21
2019-04-26T02:02:58.749Z,965.22
2019-04-26T02:03:58.750Z,965.22
2019-04-26T02:04:58.930Z,965.27
2019-04-26T02:05:58.874Z,965.24
2019-04-26T02:06:58.691Z,965.25
2019-04-26T02:07:58.908Z,965.25
2019-04-26T02:08:58.821Z,965.31
2019-04-26T02:09:58.821Z,965.31
2019-04-26T02:10:58.825Z,965.34
2019-04-26T02:11:58.898Z,965.36
2019-04-26T02:12:58.846Z,965.34
2019-04-26T02:13:58.848Z,965.42
2019-04-26T02:14:58.784Z,965.40
2019-04-26T02:15:58.859Z,965.42
2019-04-26T02:16:58.955Z,965.44
2019-04-26T02:17:58.867Z,965.38
2019-04-26T02:18:58.866Z,965.42
2019-04-26T02:19:58.804Z,965.39
2019-04-26T02:20:58.873Z,965.48
2019-04-26T02:21:59.008Z,965.48
2019-04-26T02:22:58.910Z,965.53
2019-04-26T02:23:58.914Z,965.57
2019-04-26T02:24:58.949Z,965.58
2019-04-26T02:25:59.061Z,965.59
2019-04-26T02:26:58.959Z,965.50
2019-04-26T02:27:59.062Z,965.53
2019-04-26T02:28:59.085Z,965.55
2019-04-26T02:29:59.144Z,965.52
2019-04-26T02:30:59.117Z,965.41
2019-04-26T02:31:58.979Z,965.38
2019-04-26T02:32:59.093Z,965.43
2019-04-26T02:33:58.999Z,965.44
2019-04-26T02:34:59.062Z,965.36
2019-04-26T02:35:59.078Z,965.39
2019-04-26T02:36:59.182Z,965.45
2019-04-26T02:37:59.201Z,965.49
2019-04-26T02:38:59.248Z,965.55
2019-04-26T02:39:59.228Z,965.57
2019-04-26T02:40:59.177Z,965.59
2019-04-26T02:41:59.149Z,965.56
2019-04-26T02:42:59.173Z,965.56
2019-04-26T02:43:59.186Z,965.59
2019-04-26T02:44:59.210Z,965.60
2019-04-26T02:45:59.199Z,965.66
2019-04-26T02:46:59.197Z,965.67
2019-04-26T02:47:59.219Z,965.57
2019-04-26T02:48:59.330Z,965.54
2019-04-26T02:49:59.347Z,965.57
2019-04-26T02:50:59.264Z,965.57
2019-04-26T02:51:59.346Z,965.58
2019-04-26T02:52:59.549Z,965.55
2019-04-26T02:53:59.258Z,965.55
2019-04-26T02:54:59.247Z,965.63
2019-04-26T02:55:59.234Z,965.58
2019-04-26T02:56:59.249Z,965.62
2019-04-26T02:57:59.261Z,965.68
2019-04-26T02:58:59.366Z,965.57
2019-04-26T02:59:59.441Z,965.49
2019-04-26T03:00:59.465Z,965.47
2019-04-26T03:01:59.379Z,965.56
2019-04-26T03:02:59.503Z,965.58
2019-04-26T03:03:59.412Z,965.59
2019-04-26T03:04:59.517Z,965.60
2019-04-26T03:05:59.540Z,965.65
2019-04-26T03:07:03.502Z,965.70
2019-04-26T03:07:59.455Z,965.71
2019-04-26T03:08:59.428Z,965.70
2019-04-26T03:09:59.537Z,965.67
2019-04-26T03:10:59.470Z,965.70
2019-04-26T03:11:59.670Z,965.67
2019-04-26T03:12:59.372Z,965.70
2019-04-26T03:13:59.415Z,965.62
2019-04-26T03:15:13.504Z,965.63
2019-04-26T03:15:59.505Z,965.56
2019-04-26T03:16:59.394Z,965.66
2019-04-26T03:17:59.622Z,965.62
2019-04-26T03:18:59.565Z,965.71
2019-04-26T03:19:59.533Z,965.68
2019-04-26T03:20:59.471Z,965.74
2019-04-26T03:21:59.418Z,965.72
2019-04-26T03:22:59.539Z,965.70
2019-04-26T03:23:59.654Z,965.78
2019-04-26T03:24:59.527Z,965.77
2019-04-26T03:25:59.615Z,965.74
2019-04-26T03:26:59.507Z,965.69
2019-04-26T03:27:59.511Z,965.74
2019-04-26T03:28:59.411Z,965.75
2019-04-26T03:30:18.235Z,965.70
2019-04-26T03:30:59.421Z,965.83
2019-04-26T03:31:59.432Z,965.84
2019-04-26T03:32:59.518Z,965.85
2019-04-26T03:33:59.621Z,965.79
2019-04-26T03:34:59.585Z,965.95
2019-04-26T03:35:59.433Z,965.86
2019-04-26T03:36:59.450Z,965.95
2019-04-26T03:37:59.515Z,966.01
2019-04-26T03:38:59.579Z,966.06
2019-04-26T03:39:59.610Z,966.04
2019-04-26T03:40:59.487Z,966.07
2019-04-26T03:41:59.506Z,966.06
2019-04-26T03:42:59.640Z,966.17
2019-04-26T03:43:59.430Z,966.14
2019-04-26T03:44:59.706Z,966.13
2019-04-26T03:45:59.467Z,966.13
2019-04-26T03:46:59.440Z,966.20
2019-04-26T03:47:59.566Z,966.26
2019-04-26T03:48:59.530Z,966.29
2019-04-26T03:49:59.519Z,966.25
2019-04-26T03:50:59.584Z,966.27
2019-04-26T03:51:59.447Z,966.29
2019-04-26T03:52:59.612Z,966.30
2019-04-26T03:53:59.670Z,966.28
2019-04-26T03:54:59.563Z,966.33
2019-04-26T03:55:59.687Z,966.33
2019-04-26T03:56:59.530Z,966.33
2019-04-26T03:58:00.561Z,966.33
2019-04-26T03:58:59.538Z,966.36
2019-04-26T03:59:59.508Z,966.36
2019-04-26T04:00:59.418Z,966.33
2019-04-26T04:01:59.589Z,966.34
2019-04-26T04:02:59.487Z,966.47
2019-04-26T04:03:59.443Z,966.34
2019-04-26T04:04:59.530Z,966.38
2019-04-26T04:05:59.998Z,966.41
2019-04-26T04:07:04.871Z,966.59
2019-04-26T04:07:59.498Z,966.55
2019-04-26T04:08:59.515Z,966.63
2019-04-26T04:09:59.567Z,966.64
2019-04-26T04:10:59.491Z,966.63
2019-04-26T04:12:10.962Z,966.67
2019-04-26T04:12:59.556Z,966.68
2019-04-26T04:13:59.584Z,966.73
2019-04-26T04:14:59.532Z,966.73
2019-04-26T04:15:59.451Z,966.74
2019-04-26T04:16:59.613Z,966.73
2019-04-26T04:17:59.681Z,966.69
2019-04-26T04:18:59.476Z,966.77
2019-04-26T04:19:59.533Z,966.71
2019-04-26T04:20:59.468Z,966.68
2019-04-26T04:21:59.617Z,966.78
2019-04-26T04:22:59.592Z,966.71
2019-04-26T04:23:59.622Z,966.73
2019-04-26T04:24:59.649Z,966.76
2019-04-26T04:25:59.512Z,966.85
2019-04-26T04:26:59.663Z,966.78
2019-04-26T04:28:03.112Z,966.87
2019-04-26T04:28:59.747Z,966.84
2019-04-26T04:29:59.523Z,966.83
2019-04-26T04:30:59.502Z,966.90
2019-04-26T04:31:59.452Z,967.00
2019-04-26T04:32:59.479Z,967.02
2019-04-26T04:33:59.457Z,966.99
2019-04-26T04:34:59.537Z,967.09
2019-04-26T04:35:59.531Z,967.08
2019-04-26T04:36:59.629Z,967.10
2019-04-26T04:38:08.782Z,967.12
2019-04-26T04:39:10.937Z,967.20
2019-04-26T04:39:59.676Z,967.16
2019-04-26T04:40:59.808Z,967.21
2019-04-26T04:41:59.572Z,967.25
2019-04-26T04:42:59.614Z,967.31
2019-04-26T04:43:59.538Z,967.25
2019-04-26T04:44:59.639Z,967.32
2019-04-26T04:45:59.599Z,967.32
2019-04-26T04:46:59.606Z,967.34
2019-04-26T04:47:59.787Z,967.37
2019-04-26T04:48:59.621Z,967.25
2019-04-26T04:49:59.690Z,967.43
2019-04-26T04:50:59.626Z,967.39
2019-04-26T04:51:59.544Z,967.45
2019-04-26T04:52:59.522Z,967.41
2019-04-26T04:53:59.562Z,967.50
2019-04-26T04:55:07.101Z,967.45
2019-04-26T04:55:59.626Z,967.59
2019-04-26T04:56:59.552Z,967.58
2019-04-26T04:57:59.564Z,967.40
2019-04-26T04:58:59.661Z,967.50
2019-04-26T04:59:59.599Z,967.50
2019-04-26T05:00:59.604Z,967.59
2019-04-26T05:01:59.741Z,967.61
2019-04-26T05:02:59.710Z,967.59
2019-04-26T05:03:59.688Z,967.49
2019-04-26T05:04:59.707Z,967.58
2019-04-26T05:06:07.251Z,967.61
2019-04-26T05:06:59.563Z,967.58
2019-04-26T05:08:06.644Z,967.62
2019-04-26T05:08:59.558Z,967.50
2019-04-26T05:09:59.620Z,967.48
2019-04-26T05:10:59.559Z,967.43
2019-04-26T05:11:59.589Z,967.51
2019-04-26T05:12:59.699Z,967.50
2019-04-26T05:13:59.642Z,967.50
2019-04-26T05:14:59.742Z,967.60
2019-04-26T05:15:59.538Z,967.58
2019-04-26T05:16:59.626Z,967.52
2019-04-26T05:17:59.521Z,967.64
2019-04-26T05:18:59.492Z,967.62
2019-04-26T05:19:59.570Z,967.61
2019-04-26T05:20:59.515Z,967.64
2019-04-26T05:21:59.527Z,967.65
2019-04-26T05:22:59.570Z,967.66
2019-04-26T05:23:59.665Z,967.72
2019-04-26T05:24:59.721Z,967.66
2019-04-26T05:25:59.599Z,967.62
2019-04-26T05:26:59.840Z,967.62
2019-04-26T05:27:59.506Z,967.51
2019-04-26T05:28:59.625Z,967.66
2019-04-26T05:29:59.586Z,967.63
2019-04-26T05:30:59.588Z,967.61
2019-04-26T05:31:59.761Z,967.58
2019-04-26T05:32:59.553Z,967.58
2019-04-26T05:33:59.687Z,967.64
2019-04-26T05:34:59.831Z,967.63
2019-04-26T05:35:59.551Z,967.62
2019-04-26T05:36:59.588Z,967.66
2019-04-26T05:38:04.159Z,967.56
2019-04-26T05:38:59.604Z,967.73
2019-04-26T05:39:59.636Z,967.70
2019-04-26T05:40:59.595Z,967.71
2019-04-26T05:41:59.604Z,967.78
2019-04-26T05:42:59.609Z,967.81
2019-04-26T05:43:59.691Z,967.76
2019-04-26T05:45:01.903Z,967.74
2019-04-26T05:45:59.748Z,967.83
2019-04-26T05:46:59.537Z,967.76
2019-04-26T05:48:09.279Z,967.76
2019-04-26T05:48:59.683Z,967.74
2019-04-26T05:49:59.603Z,967.81
2019-04-26T05:50:59.584Z,967.78
2019-04-26T05:51:59.787Z,967.86
2019-04-26T05:52:59.790Z,967.89
2019-04-26T05:53:59.564Z,967.95
2019-04-26T05:54:59.710Z,967.91
2019-04-26T05:55:59.624Z,967.86
2019-04-26T05:56:59.771Z,967.94
2019-04-26T05:57:59.630Z,967.86
2019-04-26T05:59:01.444Z,967.88
2019-04-26T06:00:01.016Z,967.94
2019-04-26T06:00:59.860Z,967.87
2019-04-26T06:01:59.659Z,967.91
2019-04-26T06:02:59.568Z,967.90
2019-04-26T06:03:59.650Z,967.94
2019-04-26T06:04:59.601Z,967.97
2019-04-26T06:05:59.619Z,967.99
2019-04-26T06:06:59.565Z,967.95
2019-04-26T06:07:59.780Z,968.02
2019-04-26T06:08:59.685Z,968.08
2019-04-26T06:09:59.774Z,968.19
2019-04-26T06:10:59.994Z,968.07
2019-04-26T06:11:59.580Z,968.19
2019-04-26T06:13:00.119Z,968.13
2019-04-26T06:13:59.911Z,968.09
2019-04-26T06:15:00.708Z,968.12
2019-04-26T06:16:00.138Z,968.05
2019-04-26T06:16:59.639Z,968.19
2019-04-26T06:17:59.796Z,968.15
2019-04-26T06:18:59.801Z,968.11
2019-04-26T06:19:59.628Z,968.18
2019-04-26T06:20:59.823Z,968.22
2019-04-26T06:22:00.033Z,968.14
2019-04-26T06:23:00.735Z,968.26
2019-04-26T06:23:59.998Z,968.16
2019-04-26T06:25:00.471Z,968.23
2019-04-26T06:26:01.437Z,968.24
2019-04-26T06:27:11.005Z,968.25
2019-04-26T06:28:00.641Z,968.28
2019-04-26T06:28:59.652Z,968.22
2019-04-26T06:30:01.006Z,968.31
2019-04-26T06:30:59.669Z,968.22
2019-04-26T06:32:00.473Z,968.30
2019-04-26T06:33:03.992Z,968.32
2019-04-26T06:34:00.860Z,968.29
2019-04-26T06:34:59.727Z,968.26
2019-04-26T06:35:59.705Z,968.27
2019-04-26T06:36:59.837Z,968.26
2019-04-26T06:37:59.823Z,968.26
2019-04-26T06:38:59.924Z,968.37
2019-04-26T06:39:59.963Z,968.22
2019-04-26T06:41:00.203Z,968.33
2019-04-26T06:42:00.728Z,968.28
2019-04-26T06:43:00.542Z,968.26
2019-04-26T06:44:00.399Z,968.24
2019-04-26T06:45:00.433Z,968.24
2019-04-26T06:46:00.550Z,968.22
2019-04-26T06:46:59.956Z,968.19
2019-04-26T06:47:59.782Z,968.17
2019-04-26T06:48:59.791Z,968.21
2019-04-26T06:49:59.744Z,968.13
2019-04-26T06:50:59.839Z,968.24
2019-04-26T06:52:00.419Z,968.24
2019-04-26T06:52:59.748Z,968.24
2019-04-26T06:54:00.652Z,968.31
2019-04-26T06:54:59.832Z,968.25
2019-04-26T06:56:00.815Z,968.23
2019-04-26T06:57:10.613Z,968.20
2019-04-26T06:58:00.994Z,968.24
2019-04-26T06:58:59.795Z,968.26
2019-04-26T06:59:59.846Z,968.24
2019-04-26T07:00:59.777Z,968.26
2019-04-26T07:02:00.896Z,968.18
2019-04-26T07:03:01.042Z,968.23
2019-04-26T07:03:59.802Z,968.16
2019-04-26T07:05:00.702Z,968.23
2019-04-26T07:06:00.369Z,968.23
2019-04-26T07:07:00.824Z,968.23
2019-04-26T07:07:59.762Z,968.14
2019-04-26T07:09:01.200Z,968.31
2019-04-26T07:10:00.251Z,968.32
2019-04-26T07:11:00.675Z,968.28
2019-04-26T07:12:00.810Z,968.30
2019-04-26T07:13:00.933Z,968.29
2019-04-26T07:14:00.619Z,968.30
2019-04-26T07:15:00.556Z,968.35
2019-04-26T07:16:00.331Z,968.42
2019-04-26T07:17:00.697Z,968.53
2019-04-26T07:18:00.919Z,968.48
2019-04-26T07:19:01.180Z,968.59
2019-04-26T07:20:01.463Z,968.55
2019-04-26T07:21:00.596Z,968.64
2019-04-26T07:22:00.594Z,968.75
2019-04-26T07:23:00.914Z,968.78
2019-04-26T07:23:59.766Z,968.78
2019-04-26T07:25:00.151Z,968.70
2019-04-26T07:26:00.319Z,968.78
2019-04-26T07:27:01.249Z,968.80
2019-04-26T07:28:06.446Z,968.89
2019-04-26T07:29:01.396Z,968.89
2019-04-26T07:30:01.641Z,968.91
2019-04-26T07:31:00.894Z,968.90
2019-04-26T07:32:00.884Z,968.87
2019-04-26T07:33:00.959Z,969.00
2019-04-26T07:34:00.790Z,969.04
2019-04-26T07:35:00.211Z,969.05
2019-04-26T07:36:01.173Z,969.10
2019-04-26T07:37:00.196Z,969.09
2019-04-26T07:38:01.172Z,969.09
2019-04-26T07:39:10.730Z,969.10
2019-04-26T07:40:01.371Z,969.09
2019-04-26T07:41:01.477Z,969.03
2019-04-26T07:42:01.565Z,969.12
2019-04-26T07:43:01.707Z,969.09
2019-04-26T07:44:00.992Z,969.15
2019-04-26T07:44:59.878Z,969.16
2019-04-26T07:46:01.357Z,969.16
2019-04-26T07:46:59.982Z,969.19
2019-04-26T07:47:59.775Z,969.09
2019-04-26T07:48:59.838Z,969.10
2019-04-26T07:49:59.887Z,969.04
2019-04-26T07:50:59.860Z,969.10
2019-04-26T07:51:59.978Z,969.11
2019-04-26T07:52:59.781Z,969.09
2019-04-26T07:53:59.927Z,969.19
2019-04-26T07:54:59.887Z,969.12
2019-04-26T07:55:59.882Z,969.10
2019-04-26T07:56:59.914Z,969.16
2019-04-26T07:57:59.978Z,969.17
2019-04-26T07:58:59.813Z,969.21
2019-04-26T07:59:59.868Z,969.17
2019-04-26T08:00:59.840Z,969.18
2019-04-26T08:01:59.911Z,969.23
2019-04-26T08:02:59.877Z,969.25
2019-04-26T08:03:59.954Z,969.19
2019-04-26T08:05:00.007Z,969.18
2019-04-26T08:06:01.011Z,969.17
2019-04-26T08:06:59.922Z,969.23
2019-04-26T08:07:59.928Z,969.28
2019-04-26T08:08:59.889Z,969.25
2019-04-26T08:10:00.188Z,969.23
2019-04-26T08:10:59.827Z,969.24
2019-04-26T08:11:59.840Z,969.13
2019-04-26T08:12:59.769Z,969.25
2019-04-26T08:13:59.872Z,969.24
2019-04-26T08:14:59.862Z,969.25
2019-04-26T08:15:59.917Z,969.17
2019-04-26T08:16:59.905Z,969.17
2019-04-26T08:17:59.814Z,969.17
2019-04-26T08:18:59.860Z,969.13
2019-04-26T08:19:59.943Z,969.21
2019-04-26T08:21:02.548Z,969.29
2019-04-26T08:22:11.466Z,969.26
2019-04-26T08:23:02.651Z,969.24
2019-04-26T08:23:59.954Z,969.29
2019-04-26T08:24:59.905Z,969.36
2019-04-26T08:25:59.789Z,969.39
2019-04-26T08:27:08.864Z,969.33
2019-04-26T08:27:59.814Z,969.35
2019-04-26T08:29:00.566Z,969.35
2019-04-26T08:30:03.298Z,969.40
2019-04-26T08:30:59.905Z,969.37
2019-04-26T08:31:59.908Z,969.40
2019-04-26T08:33:02.104Z,969.44
2019-04-26T08:33:59.882Z,969.48
2019-04-26T08:35:02.338Z,969.53
2019-04-26T08:35:59.898Z,969.59
2019-04-26T08:37:01.817Z,969.52
2019-04-26T08:37:59.826Z,969.47
2019-04-26T08:38:59.794Z,969.53
2019-04-26T08:39:59.995Z,969.55
2019-04-26T08:41:00.540Z,969.52
2019-04-26T08:41:59.950Z,969.55
2019-04-26T08:42:59.795Z,969.37
2019-04-26T08:43:59.906Z,969.46
2019-04-26T08:44:59.904Z,969.45
2019-04-26T08:46:03.077Z,969.49
2019-04-26T08:46:59.878Z,969.46
2019-04-26T08:47:59.803Z,969.57
2019-04-26T08:49:02.112Z,969.48
2019-04-26T08:50:00.059Z,969.55
2019-04-26T08:50:59.913Z,969.47
2019-04-26T08:51:59.899Z,969.55
2019-04-26T08:52:59.943Z,969.57
2019-04-26T08:53:59.825Z,969.60
2019-04-26T08:54:59.865Z,969.49
2019-04-26T08:55:59.805Z,969.60
2019-04-26T08:56:59.931Z,969.55
2019-04-26T08:57:59.952Z,969.55
2019-04-26T08:58:59.851Z,969.54
2019-04-26T08:59:59.847Z,969.54
2019-04-26T09:00:59.986Z,969.56
2019-04-26T09:01:59.857Z,969.55
2019-04-26T09:03:11.005Z,969.57
2019-04-26T09:04:00.021Z,969.66
2019-04-26T09:04:59.964Z,969.64
2019-04-26T09:05:59.843Z,969.64
2019-04-26T09:06:59.908Z,969.69
2019-04-26T09:07:59.940Z,969.60
2019-04-26T09:08:59.813Z,969.56
2019-04-26T09:10:01.597Z,969.53
2019-04-26T09:10:59.896Z,969.54
2019-04-26T09:12:00.180Z,969.52
2019-04-26T09:12:59.904Z,969.53
2019-04-26T09:13:59.847Z,969.57
2019-04-26T09:15:00.132Z,969.61
2019-04-26T09:15:59.874Z,969.78
2019-04-26T09:16:59.897Z,969.71
2019-04-26T09:18:02.176Z,969.77
2019-04-26T09:18:59.974Z,969.82
2019-04-26T09:20:06.973Z,969.78
2019-04-26T09:20:59.897Z,969.89
2019-04-26T09:22:12.180Z,969.76
2019-04-26T09:23:03.945Z,969.83
2019-04-26T09:23:59.948Z,969.84
2019-04-26T09:25:00.980Z,969.95
2019-04-26T09:25:59.921Z,969.84
2019-04-26T09:26:59.895Z,969.98
2019-04-26T09:27:59.889Z,970.04
2019-04-26T09:29:00.050Z,969.96
2019-04-26T09:30:00.581Z,969.97
2019-04-26T09:30:59.797Z,970.02
2019-04-26T09:31:59.956Z,970.09
2019-04-26T09:33:02.048Z,970.03
2019-04-26T09:33:59.816Z,970.03
2019-04-26T09:34:59.974Z,970.09
2019-04-26T09:35:59.834Z,970.13
2019-04-26T09:37:00.099Z,970.09
2019-04-26T09:38:00.070Z,970.09
2019-04-26T09:38:59.940Z,970.08
2019-04-26T09:40:09.654Z,970.11
2019-04-26T09:41:00.647Z,970.13
2019-04-26T09:42:01.132Z,970.16
2019-04-26T09:43:02.420Z,970.16
2019-04-26T09:44:00.307Z,970.17
2019-04-26T09:45:00.005Z,970.27
2019-04-26T09:45:59.797Z,970.22
2019-04-26T09:46:59.968Z,970.22
2019-04-26T09:48:00.048Z,970.24
2019-04-26T09:49:03.045Z,970.28
2019-04-26T09:49:59.967Z,970.32
2019-04-26T09:50:59.860Z,970.38
2019-04-26T09:51:59.973Z,970.23
2019-04-26T09:52:59.984Z,970.42
2019-04-26T09:53:59.971Z,970.33
2019-04-26T09:54:59.995Z,970.36
2019-04-26T09:55:59.998Z,970.38
2019-04-26T09:56:59.948Z,970.32
2019-04-26T09:57:59.894Z,970.43
2019-04-26T09:59:01.459Z,970.43
2019-04-26T09:59:59.994Z,970.37
2019-04-26T10:00:59.876Z,970.41
2019-04-26T10:02:00.319Z,970.34
2019-04-26T10:02:59.819Z,970.49
2019-04-26T10:03:59.923Z,970.47
2019-04-26T10:04:59.988Z,970.39
2019-04-26T10:05:59.992Z,970.41
2019-04-26T10:07:03.226Z,970.36
2019-04-26T10:08:00.100Z,970.31
2019-04-26T10:08:59.967Z,970.31
2019-04-26T10:10:00.890Z,970.25
2019-04-26T10:10:59.895Z,970.24
2019-04-26T10:11:59.970Z,970.25
2019-04-26T10:13:00.040Z,970.24
2019-04-26T10:13:59.936Z,970.23
2019-04-26T10:15:00.063Z,970.20
2019-04-26T10:16:02.615Z,970.18
2019-04-26T10:16:59.925Z,970.20
2019-04-26T10:18:00.084Z,970.17
2019-04-26T10:18:59.980Z,970.23
2019-04-26T10:20:00.099Z,970.23
2019-04-26T10:20:59.975Z,970.17
2019-04-26T10:21:59.975Z,970.22
2019-04-26T10:22:59.895Z,970.21
2019-04-26T10:24:00.108Z,970.16
2019-04-26T10:25:02.370Z,970.17
2019-04-26T10:25:59.967Z,970.24
2019-04-26T10:27:03.295Z,970.25
2019-04-26T10:28:00.010Z,970.23
2019-04-26T10:29:00.330Z,970.30
2019-04-26T10:30:07.993Z,970.39
2019-04-26T10:31:00.161Z,970.35
2019-04-26T10:32:00.094Z,970.42
2019-04-26T10:33:02.212Z,970.39
2019-04-26T10:33:59.926Z,970.43
2019-04-26T10:35:00.081Z,970.37
2019-04-26T10:36:00.530Z,970.32
2019-04-26T10:37:01.599Z,970.27
2019-04-26T10:38:00.032Z,970.27
2019-04-26T10:39:00.633Z,970.17
2019-04-26T10:40:00.193Z,970.21
2019-04-26T10:40:59.889Z,970.30
2019-04-26T10:42:00.009Z,970.17
2019-04-26T10:43:00.169Z,970.23
2019-04-26T10:43:59.950Z,970.20
2019-04-26T10:45:00.001Z,970.13
2019-04-26T10:45:59.943Z,970.18
2019-04-26T10:47:03.851Z,970.27
2019-04-26T10:47:59.910Z,970.23
2019-04-26T10:49:08.548Z,970.22
2019-04-26T10:50:00.102Z,970.16
2019-04-26T10:51:03.370Z,970.22
2019-04-26T10:52:00.001Z,970.16
2019-04-26T10:52:59.910Z,970.18
2019-04-26T10:54:01.596Z,970.14
2019-04-26T10:55:00.041Z,970.16
2019-04-26T10:56:00.046Z,970.20
2019-04-26T10:56:59.982Z,970.18
2019-04-26T10:58:00.020Z,970.19
2019-04-26T10:58:59.928Z,970.30
2019-04-26T10:59:59.979Z,970.21
2019-04-26T11:00:59.983Z,970.30
2019-04-26T11:01:59.959Z,970.35
2019-04-26T11:03:04.031Z,970.33
2019-04-26T11:04:00.094Z,970.24
2019-04-26T11:05:00.064Z,970.30
2019-04-26T11:06:00.007Z,970.34
2019-04-26T11:07:01.898Z,970.29
2019-04-26T11:08:00.109Z,970.32
2019-04-26T11:09:00.064Z,970.37
2019-04-26T11:10:02.874Z,970.44
2019-04-26T11:11:00.097Z,970.38
2019-04-26T11:12:00.020Z,970.38
2019-04-26T11:13:00.061Z,970.37
2019-04-26T11:13:59.996Z,970.38
2019-04-26T11:15:00.036Z,970.26
2019-04-26T11:16:02.517Z,970.24
2019-04-26T11:16:59.989Z,970.42
2019-04-26T11:17:59.894Z,970.32
2019-04-26T11:19:01.096Z,970.34
2019-04-26T11:19:59.964Z,970.40
2019-04-26T11:21:00.150Z,970.41
2019-04-26T11:22:00.051Z,970.42
2019-04-26T11:23:00.054Z,970.48
2019-04-26T11:24:00.020Z,970.47
2019-04-26T11:25:00.083Z,970.50
2019-04-26T11:26:01.732Z,970.45
2019-04-26T11:27:00.192Z,970.41
2019-04-26T11:28:00.676Z,970.45
2019-04-26T11:29:00.094Z,970.53
2019-04-26T11:30:10.750Z,970.52
2019-04-26T11:31:00.009Z,970.57
2019-04-26T11:32:02.670Z,970.67
2019-04-26T11:32:59.996Z,970.60
2019-04-26T11:34:05.473Z,970.65
2019-04-26T11:35:00.479Z,970.62
2019-04-26T11:36:03.305Z,970.65
2019-04-26T11:37:00.100Z,970.71
2019-04-26T11:38:00.283Z,970.73
2019-04-26T11:39:01.299Z,970.82
2019-04-26T11:40:00.142Z,970.78
2019-04-26T11:41:06.394Z,970.81
2019-04-26T11:41:59.980Z,970.78
2019-04-26T11:43:00.072Z,970.85
2019-04-26T11:44:00.098Z,970.82
2019-04-26T11:45:06.096Z,970.88
2019-04-26T11:46:04.419Z,970.86
2019-04-26T11:47:03.227Z,970.97
2019-04-26T11:48:00.032Z,970.90
2019-04-26T11:49:03.170Z,970.90
2019-04-26T11:50:00.110Z,970.89
2019-04-26T11:51:00.175Z,970.91
2019-04-26T11:52:02.764Z,971.02
2019-04-26T11:53:00.019Z,971.03
2019-04-26T11:53:59.997Z,971.08
2019-04-26T11:55:00.244Z,971.02
2019-04-26T11:56:04.165Z,971.13
2019-04-26T11:57:00.175Z,971.13
2019-04-26T11:58:00.071Z,971.10
2019-04-26T11:58:59.999Z,971.13
2019-04-26T12:00:01.337Z,971.18
2019-04-26T12:01:00.026Z,971.22
2019-04-26T12:01:59.972Z,971.08
2019-04-26T12:03:00.049Z,971.04
2019-04-26T12:04:00.767Z,971.11
2019-04-26T12:05:00.093Z,971.11
2019-04-26T12:06:00.078Z,971.10
2019-04-26T12:07:00.156Z,971.15
2019-04-26T12:08:00.092Z,971.13
2019-04-26T12:09:00.154Z,971.07
2019-04-26T12:10:00.011Z,971.12
2019-04-26T12:11:00.243Z,971.09
2019-04-26T12:12:04.723Z,971.05
2019-04-26T12:13:05.927Z,970.96
2019-04-26T12:14:00.865Z,971.11
2019-04-26T12:15:03.880Z,971.16
2019-04-26T12:16:00.070Z,971.17
2019-04-26T12:17:58.087Z,971.07
2019-04-26T12:20:49.725Z,971.11
2019-04-26T12:21:49.736Z,971.05
2019-04-26T12:22:49.735Z,971.08
2019-04-26T12:23:51.405Z,971.08
2019-04-26T12:24:49.852Z,971.05
2019-04-26T12:25:52.500Z,970.96
2019-04-26T12:26:52.005Z,970.88
2019-04-26T12:27:53.347Z,970.78
2019-04-26T12:28:49.892Z,970.99
2019-04-26T12:29:49.908Z,970.95
2019-04-26T12:30:49.810Z,970.96
2019-04-26T12:31:49.766Z,970.97